createdAt,value
2018-06-01T00:00:37.590Z,0.00
2018-06-01T00:01:37.595Z,0.00
2018-06-01T00:02:37.621Z,0.00
2018-06-01T00:03:37.647Z,0.00
2018-06-01T00:04:37.672Z,0.00
2018-06-01T00:05:37.699Z,0.00
2018-06-01T00:06:37.725Z,0.00
2018-06-01T00:07:37.752Z,0.00
2018-06-01T00:08:37.776Z,0.00
2018-06-01T00:09:37.802Z,0.00
2018-06-01T00:10:37.829Z,0.00
2018-06-01T00:11:37.854Z,0.00
2018-06-01T00:12:37.880Z,0.00
2018-06-01T00:13:37.905Z,0.00
2018-06-01T00:14:37.935Z,0.00
2018-06-01T00:15:37.958Z,0.00
2018-06-01T00:16:37.985Z,0.00
2018-06-01T00:17:38.009Z,0.00
2018-06-01T00:18:38.038Z,0.00
2018-06-01T00:19:38.063Z,0.00
2018-06-01T00:20:38.089Z,0.00
2018-06-01T00:21:38.120Z,0.00
2018-06-01T00:22:38.139Z,0.00
2018-06-01T00:23:38.165Z,0.00
2018-06-01T00:24:38.192Z,0.00
2018-06-01T00:25:38.218Z,0.00
2018-06-01T00:26:38.245Z,0.00
2018-06-01T00:27:38.268Z,0.00
2018-06-01T00:28:38.295Z,0.00
2018-06-01T00:29:38.325Z,0.00
2018-06-01T00:30:38.347Z,0.00
2018-06-01T00:31:38.373Z,0.00
2018-06-01T00:32:38.399Z,0.00
2018-06-01T00:33:38.424Z,0.00
2018-06-01T00:34:38.450Z,0.00
2018-06-01T00:35:38.477Z,0.00
2018-06-01T00:36:38.505Z,0.00
2018-06-01T00:37:38.528Z,0.00
2018-06-01T00:38:38.558Z,0.00
2018-06-01T00:39:38.581Z,0.00
2018-06-01T00:40:38.607Z,0.00
2018-06-01T00:41:38.632Z,0.00
2018-06-01T00:42:38.659Z,0.00
2018-06-01T00:43:38.684Z,0.00
2018-06-01T00:44:38.697Z,0.00
2018-06-01T00:45:38.723Z,0.00
2018-06-01T00:46:38.796Z,0.00
2018-06-01T00:47:38.775Z,0.00
2018-06-01T00:48:38.801Z,0.00
2018-06-01T00:49:38.826Z,0.00
2018-06-01T00:50:38.865Z,0.00
2018-06-01T00:51:38.878Z,0.00
2018-06-01T00:52:38.916Z,0.00
2018-06-01T00:53:38.932Z,0.00
2018-06-01T00:54:38.956Z,0.00
2018-06-01T00:55:38.982Z,0.00
2018-06-01T00:56:39.008Z,0.00
2018-06-01T00:57:39.034Z,0.00
2018-06-01T00:58:39.059Z,0.00
2018-06-01T00:59:39.086Z,0.00
2018-06-01T01:00:39.112Z,0.00
2018-06-01T01:01:39.137Z,0.00
2018-06-01T01:02:39.167Z,0.00
2018-06-01T01:03:39.189Z,0.00
2018-06-01T01:04:39.215Z,0.00
2018-06-01T01:05:39.241Z,0.00
2018-06-01T01:06:39.267Z,0.00
2018-06-01T01:07:39.305Z,0.00
2018-06-01T01:08:39.319Z,0.00
2018-06-01T01:09:39.345Z,0.00
2018-06-01T01:10:39.372Z,0.00
2018-06-01T01:11:39.396Z,0.00
2018-06-01T01:12:39.423Z,0.00
2018-06-01T01:13:39.461Z,0.00
2018-06-01T01:14:39.474Z,0.00
2018-06-01T01:15:39.500Z,0.00
2018-06-01T01:16:39.526Z,0.00
2018-06-01T01:17:39.552Z,0.00
2018-06-01T01:18:39.579Z,0.00
2018-06-01T01:19:39.604Z,0.00
2018-06-01T01:20:39.629Z,0.00
2018-06-01T01:21:39.655Z,0.00
2018-06-01T01:22:39.693Z,0.00
2018-06-01T01:23:39.706Z,0.00
2018-06-01T01:24:39.733Z,0.00
2018-06-01T01:25:39.759Z,0.00
2018-06-01T01:26:39.784Z,0.00
2018-06-01T01:27:39.810Z,0.00
2018-06-01T01:28:39.825Z,0.00
2018-06-01T01:29:39.851Z,0.00
2018-06-01T01:30:39.877Z,0.00
2018-06-01T01:31:39.902Z,0.00
2018-06-01T01:32:39.928Z,0.00
2018-06-01T01:33:39.957Z,0.00
2018-06-01T01:34:39.979Z,0.00
2018-06-01T01:35:40.006Z,0.00
2018-06-01T01:36:40.033Z,0.00
2018-06-01T01:37:40.057Z,0.00
2018-06-01T01:38:40.083Z,0.00
2018-06-01T01:39:40.109Z,0.00
2018-06-01T01:40:40.135Z,0.00
2018-06-01T01:41:40.163Z,0.00
2018-06-01T01:42:40.186Z,0.00
2018-06-01T01:43:40.214Z,0.00
2018-06-01T01:44:40.238Z,0.00
2018-06-01T01:45:40.266Z,0.00
2018-06-01T01:46:40.290Z,0.00
2018-06-01T01:47:40.317Z,0.00
2018-06-01T01:48:40.342Z,0.00
2018-06-01T01:49:40.372Z,0.00
2018-06-01T01:50:40.394Z,0.00
2018-06-01T01:51:40.420Z,0.00
2018-06-01T01:52:40.433Z,0.00
2018-06-01T01:53:40.460Z,0.00
2018-06-01T01:54:40.486Z,0.00
2018-06-01T01:55:40.511Z,0.00
2018-06-01T01:56:40.536Z,0.00
2018-06-01T01:57:40.562Z,0.00
2018-06-01T01:58:40.589Z,0.00
2018-06-01T01:59:40.628Z,0.00
2018-06-01T02:00:40.641Z,0.00
2018-06-01T02:01:40.667Z,0.00
2018-06-01T02:02:40.696Z,0.00
2018-06-01T02:03:40.718Z,0.00
2018-06-01T02:04:40.749Z,0.00
2018-06-01T02:05:40.770Z,0.00
2018-06-01T02:06:40.797Z,0.00
2018-06-01T02:07:40.822Z,0.00
2018-06-01T02:08:41.151Z,0.00
2018-06-01T02:09:40.876Z,0.00
2018-06-01T02:10:40.901Z,0.00
2018-06-01T02:11:40.914Z,0.00
2018-06-01T02:12:40.940Z,0.00
2018-06-01T02:13:40.966Z,0.00
2018-06-01T02:14:40.991Z,0.00
2018-06-01T02:15:41.020Z,0.00
2018-06-01T02:16:41.044Z,0.00
2018-06-01T02:17:41.069Z,0.00
2018-06-01T02:18:41.102Z,0.00
2018-06-01T02:19:41.121Z,0.00
2018-06-01T02:20:41.148Z,0.00
2018-06-01T02:21:41.174Z,0.00
2018-06-01T02:22:41.199Z,0.00
2018-06-01T02:23:41.225Z,0.00
2018-06-01T02:24:41.251Z,0.00
2018-06-01T02:25:41.278Z,0.00
2018-06-01T02:26:41.303Z,0.00
2018-06-01T02:27:41.328Z,0.00
2018-06-01T02:28:41.347Z,0.00
2018-06-01T02:29:41.370Z,0.00
2018-06-01T02:30:41.395Z,0.00
2018-06-01T02:31:41.419Z,0.00
2018-06-01T02:32:41.449Z,0.00
2018-06-01T02:33:41.471Z,0.00
2018-06-01T02:34:41.497Z,0.00
2018-06-01T02:35:41.522Z,0.00
2018-06-01T02:36:41.549Z,0.00
2018-06-01T02:37:41.574Z,0.00
2018-06-01T02:38:41.600Z,0.00
2018-06-01T02:39:41.626Z,5.63
2018-06-01T02:40:41.652Z,5.63
2018-06-01T02:41:41.680Z,5.63
2018-06-01T02:42:41.704Z,5.63
2018-06-01T02:43:41.730Z,5.63
2018-06-01T02:44:41.744Z,5.63
2018-06-01T02:45:41.772Z,5.63
2018-06-01T02:46:41.797Z,5.63
2018-06-01T02:47:41.823Z,11.25
2018-06-01T02:48:41.849Z,11.25
2018-06-01T02:49:41.885Z,11.25
2018-06-01T02:50:41.904Z,11.25
2018-06-01T02:51:41.926Z,11.25
2018-06-01T02:52:41.951Z,11.25
2018-06-01T02:53:41.978Z,16.88
2018-06-01T02:54:42.004Z,16.88
2018-06-01T02:55:42.029Z,16.88
2018-06-01T02:56:42.056Z,16.88
2018-06-01T02:57:42.081Z,16.88
2018-06-01T02:58:42.108Z,22.50
2018-06-01T02:59:42.121Z,22.50
2018-06-01T03:00:42.146Z,22.50
2018-06-01T03:01:42.173Z,22.50
2018-06-01T03:02:42.198Z,28.13
2018-06-01T03:03:42.224Z,28.13
2018-06-01T03:04:42.251Z,28.13
2018-06-01T03:05:42.278Z,28.13
2018-06-01T03:06:42.306Z,33.75
2018-06-01T03:07:42.328Z,33.75
2018-06-01T03:08:42.354Z,33.75
2018-06-01T03:09:42.379Z,33.75
2018-06-01T03:10:42.407Z,33.75
2018-06-01T03:11:42.432Z,39.38
2018-06-01T03:12:42.446Z,39.38
2018-06-01T03:13:42.471Z,39.38
2018-06-01T03:14:42.497Z,39.38
2018-06-01T03:15:42.523Z,45.00
2018-06-01T03:16:42.550Z,45.00
2018-06-01T03:17:42.575Z,45.00
2018-06-01T03:18:42.601Z,45.00
2018-06-01T03:19:42.627Z,50.63
2018-06-01T03:20:42.653Z,50.63
2018-06-01T03:21:42.678Z,50.63
2018-06-01T03:22:42.705Z,56.25
2018-06-01T03:23:42.730Z,56.25
2018-06-01T03:24:42.747Z,56.25
2018-06-01T03:25:42.769Z,61.88
2018-06-01T03:26:42.794Z,61.88
2018-06-01T03:27:42.822Z,67.50
2018-06-01T03:28:42.847Z,67.50
2018-06-01T03:29:42.872Z,73.13
2018-06-01T03:30:42.899Z,73.13
2018-06-01T03:31:42.925Z,78.75
2018-06-01T03:32:42.951Z,78.75
2018-06-01T03:33:42.976Z,84.38
2018-06-01T03:34:43.002Z,90.00
2018-06-01T03:35:43.032Z,90.00
2018-06-01T03:36:43.054Z,95.63
2018-06-01T03:37:43.068Z,95.63
2018-06-01T03:38:43.094Z,95.63
2018-06-01T03:39:43.119Z,101.25
2018-06-01T03:40:43.146Z,101.25
2018-06-01T03:41:43.172Z,101.25
2018-06-01T03:42:43.197Z,106.88
2018-06-01T03:43:43.223Z,106.88
2018-06-01T03:44:43.250Z,112.50
2018-06-01T03:45:43.279Z,112.50
2018-06-01T03:46:43.301Z,112.50
2018-06-01T03:47:43.329Z,118.13
2018-06-01T03:48:43.341Z,118.13
2018-06-01T03:49:43.381Z,118.13
2018-06-01T03:50:43.393Z,118.13
2018-06-01T03:51:43.418Z,123.75
2018-06-01T03:52:43.444Z,123.75
2018-06-01T03:53:43.469Z,129.38
2018-06-01T03:54:43.498Z,129.38
2018-06-01T03:55:43.522Z,135.00
2018-06-01T03:56:43.549Z,135.00
2018-06-01T03:57:43.580Z,140.63
2018-06-01T03:58:43.599Z,140.63
2018-06-01T03:59:43.625Z,146.25
2018-06-01T04:00:43.653Z,146.25
2018-06-01T04:01:43.666Z,151.88
2018-06-01T04:02:43.695Z,157.50
2018-06-01T04:03:43.718Z,157.50
2018-06-01T04:04:43.746Z,163.13
2018-06-01T04:05:43.771Z,163.13
2018-06-01T04:06:43.796Z,168.75
2018-06-01T04:07:43.821Z,168.75
2018-06-01T04:08:43.847Z,174.38
2018-06-01T04:09:43.877Z,174.38
2018-06-01T04:10:43.898Z,180.00
2018-06-01T04:11:43.925Z,180.00
2018-06-01T04:12:43.955Z,185.63
2018-06-01T04:13:43.976Z,191.25
2018-06-01T04:14:44.002Z,191.25
2018-06-01T04:15:44.016Z,196.88
2018-06-01T04:16:44.049Z,196.88
2018-06-01T04:17:44.067Z,202.50
2018-06-01T04:18:44.093Z,208.13
2018-06-01T04:19:44.119Z,208.13
2018-06-01T04:20:44.158Z,208.13
2018-06-01T04:21:44.171Z,213.75
2018-06-01T04:22:44.197Z,213.75
2018-06-01T04:23:44.222Z,219.38
2018-06-01T04:24:44.248Z,219.38
2018-06-01T04:25:44.274Z,225.00
2018-06-01T04:26:44.314Z,230.63
2018-06-01T04:27:44.376Z,230.63
2018-06-01T04:28:44.354Z,236.25
2018-06-01T04:29:44.378Z,236.25
2018-06-01T04:30:44.394Z,241.88
2018-06-01T04:31:44.422Z,241.88
2018-06-01T04:32:44.444Z,247.50
2018-06-01T04:33:44.471Z,247.50
2018-06-01T04:34:44.496Z,253.13
2018-06-01T04:35:44.522Z,253.13
2018-06-01T04:36:44.549Z,253.13
2018-06-01T04:37:44.574Z,258.75
2018-06-01T04:38:44.601Z,258.75
2018-06-01T04:39:44.626Z,258.75
2018-06-01T04:40:44.651Z,264.38
2018-06-01T04:41:44.678Z,264.38
2018-06-01T04:42:44.703Z,264.38
2018-06-01T04:43:44.730Z,270.00
2018-06-01T04:44:44.756Z,270.00
2018-06-01T04:45:44.782Z,275.63
2018-06-01T04:46:44.806Z,281.25
2018-06-01T04:47:44.833Z,281.25
2018-06-01T04:48:44.846Z,286.88
2018-06-01T04:49:44.873Z,292.50
2018-06-01T04:50:44.898Z,298.13
2018-06-01T04:51:44.925Z,298.13
2018-06-01T04:52:44.950Z,303.75
2018-06-01T04:53:44.975Z,309.38
2018-06-01T04:54:45.001Z,309.38
2018-06-01T04:55:45.027Z,315.00
2018-06-01T04:56:45.053Z,315.00
2018-06-01T04:57:45.079Z,320.63
2018-06-01T04:58:45.106Z,320.63
2018-06-01T04:59:45.131Z,320.63
2018-06-01T05:00:45.157Z,326.25
2018-06-01T05:01:45.183Z,326.25
2018-06-01T05:02:45.209Z,331.88
2018-06-01T05:03:45.235Z,337.50
2018-06-01T05:04:45.260Z,343.13
2018-06-01T05:05:45.287Z,348.75
2018-06-01T05:06:45.350Z,354.38
2018-06-01T05:07:45.337Z,360.00
2018-06-01T05:08:45.364Z,360.00
2018-06-01T05:09:45.390Z,365.63
2018-06-01T05:10:45.417Z,365.63
2018-06-01T05:11:45.441Z,365.63
2018-06-01T05:12:45.467Z,371.25
2018-06-01T05:13:45.493Z,371.25
2018-06-01T05:14:45.520Z,376.88
2018-06-01T05:15:45.545Z,388.13
2018-06-01T05:16:45.571Z,416.25
2018-06-01T05:17:45.597Z,438.75
2018-06-01T05:18:45.623Z,427.50
2018-06-01T05:19:45.649Z,410.63
2018-06-01T05:20:45.663Z,433.13
2018-06-01T05:21:45.689Z,506.25
2018-06-01T05:22:45.717Z,630.00
2018-06-01T05:23:45.758Z,703.13
2018-06-01T05:24:45.768Z,748.13
2018-06-01T05:25:45.797Z,708.75
2018-06-01T05:26:45.831Z,590.63
2018-06-01T05:27:45.856Z,635.63
2018-06-01T05:28:45.882Z,618.75
2018-06-01T05:29:45.908Z,568.13
2018-06-01T05:30:45.935Z,466.88
2018-06-01T05:31:45.960Z,438.75
2018-06-01T05:32:45.999Z,466.88
2018-06-01T05:33:46.013Z,478.13
2018-06-01T05:34:46.038Z,450.00
2018-06-01T05:35:46.064Z,433.13
2018-06-01T05:36:46.090Z,438.75
2018-06-01T05:37:46.116Z,438.75
2018-06-01T05:38:46.142Z,438.75
2018-06-01T05:39:46.167Z,455.63
2018-06-01T05:40:46.194Z,455.63
2018-06-01T05:41:46.219Z,523.13
2018-06-01T05:42:46.246Z,472.50
2018-06-01T05:43:46.284Z,461.25
2018-06-01T05:44:46.310Z,461.25
2018-06-01T05:45:46.336Z,478.13
2018-06-01T05:46:46.362Z,483.75
2018-06-01T05:47:46.389Z,495.00
2018-06-01T05:48:46.414Z,523.13
2018-06-01T05:49:46.440Z,540.00
2018-06-01T05:50:46.465Z,534.38
2018-06-01T05:51:46.500Z,517.50
2018-06-01T05:52:46.520Z,523.13
2018-06-01T05:53:46.595Z,534.38
2018-06-01T05:54:46.573Z,511.88
2018-06-01T05:55:46.606Z,517.50
2018-06-01T05:56:46.633Z,511.88
2018-06-01T05:57:46.662Z,517.50
2018-06-01T05:58:46.685Z,523.13
2018-06-01T05:59:46.710Z,523.13
2018-06-01T06:00:46.739Z,528.75
2018-06-01T06:01:46.763Z,540.00
2018-06-01T06:02:46.789Z,556.88
2018-06-01T06:03:46.815Z,596.25
2018-06-01T06:04:46.840Z,601.88
2018-06-01T06:05:46.867Z,568.13
2018-06-01T06:06:46.909Z,579.38
2018-06-01T06:07:46.919Z,601.88
2018-06-01T06:08:46.957Z,725.63
2018-06-01T06:09:46.983Z,708.75
2018-06-01T06:10:47.010Z,663.75
2018-06-01T06:11:47.035Z,641.25
2018-06-01T06:12:47.061Z,843.75
2018-06-01T06:13:47.087Z,995.63
2018-06-01T06:14:47.113Z,933.75
2018-06-01T06:15:47.138Z,826.88
2018-06-01T06:16:47.166Z,826.88
2018-06-01T06:17:47.206Z,1192.50
2018-06-01T06:18:47.228Z,1580.63
2018-06-01T06:19:47.271Z,1620.00
2018-06-01T06:20:47.279Z,1670.63
2018-06-01T06:21:47.306Z,1648.13
2018-06-01T06:22:47.331Z,1462.50
2018-06-01T06:23:47.371Z,1096.88
2018-06-01T06:24:47.396Z,978.75
2018-06-01T06:25:47.423Z,1046.25
2018-06-01T06:26:47.449Z,1006.88
2018-06-01T06:27:47.486Z,855.00
2018-06-01T06:28:47.512Z,916.88
2018-06-01T06:29:47.538Z,838.13
2018-06-01T06:30:47.565Z,753.75
2018-06-01T06:31:47.604Z,922.50
2018-06-01T06:32:47.628Z,911.25
2018-06-01T06:33:47.654Z,1125.00
2018-06-01T06:34:47.692Z,1316.25
2018-06-01T06:35:47.720Z,1563.75
2018-06-01T06:36:47.744Z,1794.38
2018-06-01T06:37:47.785Z,1856.25
2018-06-01T06:38:47.810Z,1884.38
2018-06-01T06:39:47.844Z,1901.25
2018-06-01T06:40:48.065Z,1923.75
2018-06-01T06:41:47.899Z,1906.88
2018-06-01T06:42:47.925Z,1890.00
2018-06-01T06:43:47.955Z,1912.50
2018-06-01T06:44:47.992Z,1935.00
2018-06-01T06:45:48.017Z,1929.38
2018-06-01T06:46:48.054Z,1940.63
2018-06-01T06:47:48.079Z,1906.88
2018-06-01T06:48:48.106Z,1935.00
2018-06-01T06:49:48.144Z,1940.63
2018-06-01T06:50:48.182Z,1951.88
2018-06-01T06:51:48.207Z,1974.38
2018-06-01T06:52:48.235Z,1980.00
2018-06-01T06:53:48.273Z,2008.13
2018-06-01T06:54:48.320Z,2013.75
2018-06-01T06:55:48.344Z,2013.75
2018-06-01T06:56:48.376Z,1895.63
2018-06-01T06:57:48.402Z,1856.25
2018-06-01T06:58:48.441Z,2030.63
2018-06-01T06:59:48.479Z,2081.25
2018-06-01T07:00:48.504Z,2109.38
2018-06-01T07:01:48.543Z,2160.00
2018-06-01T07:02:48.608Z,2182.50
2018-06-01T07:03:48.607Z,2216.25
2018-06-01T07:04:48.644Z,2210.63
2018-06-01T07:05:48.674Z,2244.38
2018-06-01T07:06:48.711Z,2261.25
2018-06-01T07:07:48.748Z,2210.63
2018-06-01T07:08:48.788Z,2261.25
2018-06-01T07:09:48.814Z,2340.00
2018-06-01T07:10:48.858Z,2086.88
2018-06-01T07:11:48.889Z,1563.75
2018-06-01T07:12:48.932Z,1203.75
2018-06-01T07:13:48.952Z,1068.75
2018-06-01T07:14:48.993Z,1051.88
2018-06-01T07:15:49.030Z,1080.00
2018-06-01T07:16:49.069Z,1141.88
2018-06-01T07:17:49.095Z,1175.63
2018-06-01T07:18:49.132Z,961.88
2018-06-01T07:19:49.171Z,877.50
2018-06-01T07:20:49.209Z,821.25
2018-06-01T07:21:49.235Z,815.63
2018-06-01T07:22:49.274Z,871.88
2018-06-01T07:23:49.312Z,1108.13
2018-06-01T07:24:49.337Z,1102.50
2018-06-01T07:25:49.377Z,1029.38
2018-06-01T07:26:49.415Z,1153.13
2018-06-01T07:27:49.489Z,1063.13
2018-06-01T07:28:49.480Z,1141.88
2018-06-01T07:29:49.517Z,1018.13
2018-06-01T07:30:49.545Z,990.00
2018-06-01T07:31:49.583Z,978.75
2018-06-01T07:32:49.620Z,1130.63
2018-06-01T07:33:49.646Z,1147.50
2018-06-01T07:34:50.035Z,1586.25
2018-06-01T07:35:49.711Z,1141.88
2018-06-01T07:36:49.762Z,1186.88
2018-06-01T07:37:49.792Z,2621.25
2018-06-01T07:38:49.835Z,2514.38
2018-06-01T07:39:49.851Z,2266.88
2018-06-01T07:40:49.883Z,2610.00
2018-06-01T07:41:49.917Z,1698.75
2018-06-01T07:42:49.955Z,1361.25
2018-06-01T07:43:49.995Z,1366.88
2018-06-01T07:44:50.023Z,1462.50
2018-06-01T07:45:50.058Z,1411.88
2018-06-01T07:46:50.113Z,1400.63
2018-06-01T07:47:50.123Z,1344.38
2018-06-01T07:48:50.160Z,1333.13
2018-06-01T07:49:50.200Z,1305.00
2018-06-01T07:50:50.226Z,1271.25
2018-06-01T07:51:50.263Z,1254.38
2018-06-01T07:52:50.302Z,1226.25
2018-06-01T07:53:50.329Z,1231.88
2018-06-01T07:54:50.372Z,1248.75
2018-06-01T07:55:50.405Z,1288.13
2018-06-01T07:56:50.432Z,1276.88
2018-06-01T07:57:50.470Z,1293.75
2018-06-01T07:58:50.507Z,1321.88
2018-06-01T07:59:50.546Z,1361.25
2018-06-01T08:00:50.584Z,1423.13
2018-06-01T08:01:50.614Z,1507.50
2018-06-01T08:02:50.639Z,1721.25
2018-06-01T08:03:50.674Z,2576.25
2018-06-01T08:04:50.713Z,2542.50
2018-06-01T08:05:50.739Z,2565.00
2018-06-01T08:06:50.778Z,2520.00
2018-06-01T08:07:50.816Z,2536.88
2018-06-01T08:08:50.841Z,2536.88
2018-06-01T08:09:50.881Z,3161.25
2018-06-01T08:10:50.924Z,3408.75
2018-06-01T08:11:50.957Z,3290.63
2018-06-01T08:12:50.995Z,3448.13
2018-06-01T08:13:51.023Z,3555.00
2018-06-01T08:14:51.072Z,3318.75
2018-06-01T08:15:51.099Z,2733.75
2018-06-01T08:16:51.135Z,2638.13
2018-06-01T08:17:51.177Z,2452.50
2018-06-01T08:18:51.213Z,2109.38
2018-06-01T08:19:51.252Z,1726.88
2018-06-01T08:20:51.290Z,1513.13
2018-06-01T08:21:51.329Z,1456.88
2018-06-01T08:22:51.366Z,1479.38
2018-06-01T08:23:51.411Z,1575.00
2018-06-01T08:24:51.443Z,1805.63
2018-06-01T08:25:51.486Z,2649.38
2018-06-01T08:26:51.525Z,2986.88
2018-06-01T08:27:51.559Z,3206.25
2018-06-01T08:28:51.598Z,2880.00
2018-06-01T08:29:51.637Z,2491.88
2018-06-01T08:31:51.713Z,1918.13
2018-06-01T08:32:51.752Z,1935.00
2018-06-01T08:33:51.789Z,2182.50
2018-06-01T08:34:51.829Z,2542.50
2018-06-01T08:35:51.867Z,2778.75
2018-06-01T08:36:51.948Z,2610.00
2018-06-01T08:37:51.946Z,2508.75
2018-06-01T08:38:51.982Z,2722.50
2018-06-01T08:39:52.068Z,2750.63
2018-06-01T08:40:52.059Z,2424.38
2018-06-01T08:41:52.101Z,2520.00
2018-06-01T08:42:52.134Z,3093.75
2018-06-01T08:43:52.176Z,3262.50
2018-06-01T08:44:52.211Z,3600.00
2018-06-01T08:45:52.254Z,3510.00
2018-06-01T08:46:52.290Z,3178.13
2018-06-01T08:47:52.327Z,2919.38
2018-06-01T08:48:52.368Z,3515.63
2018-06-01T08:49:52.405Z,3279.38
2018-06-01T08:50:52.455Z,3442.50
2018-06-01T08:51:52.507Z,3453.75
2018-06-01T08:52:52.532Z,3363.75
2018-06-01T08:53:52.570Z,3346.88
2018-06-01T08:54:52.609Z,3273.75
2018-06-01T08:55:52.648Z,3459.38
2018-06-01T08:56:52.723Z,3375.00
2018-06-01T08:57:52.737Z,3341.25
2018-06-01T08:58:52.784Z,3397.50
2018-06-01T08:59:52.819Z,3414.38
2018-06-01T09:00:52.870Z,3346.88
2018-06-01T09:01:52.902Z,3234.38
2018-06-01T09:02:52.944Z,3448.13
2018-06-01T09:03:52.992Z,3645.00
2018-06-01T09:04:53.030Z,3583.13
2018-06-01T09:05:53.069Z,3549.38
2018-06-01T09:06:53.107Z,3678.75
2018-06-01T09:07:53.158Z,3628.13
2018-06-01T09:08:53.196Z,3656.25
2018-06-01T09:09:53.234Z,3729.38
2018-06-01T09:10:53.285Z,3706.88
2018-06-01T09:11:53.326Z,3639.38
2018-06-01T09:12:53.376Z,2176.88
2018-06-01T09:13:53.425Z,1760.63
2018-06-01T09:14:53.453Z,1653.75
2018-06-01T09:15:53.504Z,1653.75
2018-06-01T09:16:53.540Z,1400.63
2018-06-01T09:17:53.580Z,1321.88
2018-06-01T09:18:53.631Z,1248.75
2018-06-01T09:19:53.681Z,1198.13
2018-06-01T09:20:53.711Z,1153.13
2018-06-01T09:21:53.746Z,1130.63
2018-06-01T09:22:53.796Z,1102.50
2018-06-01T09:23:53.835Z,1091.25
2018-06-01T09:24:53.873Z,1063.13
2018-06-01T09:25:54.261Z,1057.50
2018-06-01T09:26:53.949Z,1085.63
2018-06-01T09:27:54.013Z,1125.00
2018-06-01T09:28:54.040Z,1186.88
2018-06-01T09:29:54.078Z,1265.63
2018-06-01T09:30:54.127Z,1350.00
2018-06-01T09:32:54.194Z,1591.88
2018-06-01T09:33:54.231Z,1687.50
2018-06-01T09:34:54.270Z,1721.25
2018-06-01T09:35:54.313Z,1951.88
2018-06-01T09:36:54.352Z,1777.50
2018-06-01T09:37:54.387Z,1777.50
2018-06-01T09:38:54.424Z,1850.63
2018-06-01T09:39:54.462Z,1873.13
2018-06-01T09:40:54.501Z,1906.88
2018-06-01T09:41:54.538Z,1805.63
2018-06-01T09:42:54.582Z,1828.13
2018-06-01T09:43:54.615Z,1968.75
2018-06-01T09:44:54.644Z,2081.25
2018-06-01T09:45:54.681Z,2266.88
2018-06-01T09:46:54.718Z,1985.63
2018-06-01T09:47:54.757Z,2115.00
2018-06-01T09:48:54.796Z,1856.25
2018-06-01T09:49:54.833Z,1563.75
2018-06-01T09:50:54.871Z,1569.38
2018-06-01T09:51:54.911Z,1631.25
2018-06-01T09:52:54.948Z,3031.88
2018-06-01T09:53:54.987Z,3892.50
2018-06-01T09:54:55.027Z,4111.88
2018-06-01T09:55:55.063Z,4055.63
2018-06-01T09:56:55.102Z,3847.50
2018-06-01T09:57:55.141Z,3757.50
2018-06-01T09:58:55.191Z,3673.13
2018-06-01T09:59:55.217Z,3661.88
2018-06-01T10:00:55.255Z,3796.88
2018-06-01T10:01:55.295Z,3796.88
2018-06-01T10:02:55.333Z,3830.63
2018-06-01T10:03:55.384Z,3712.50
2018-06-01T10:04:55.423Z,3931.88
2018-06-01T10:05:55.465Z,4117.50
2018-06-01T10:06:55.498Z,4331.25
2018-06-01T10:07:55.538Z,3999.38
2018-06-01T10:09:55.626Z,4027.50
2018-06-01T10:10:55.664Z,3774.38
2018-06-01T10:11:55.715Z,3864.38
2018-06-01T10:12:55.754Z,4083.75
2018-06-01T10:13:55.793Z,4140.00
2018-06-01T10:14:55.843Z,3993.75
2018-06-01T10:15:55.882Z,3825.00
2018-06-01T10:16:55.922Z,3678.75
2018-06-01T10:17:55.959Z,3864.38
2018-06-01T10:18:56.010Z,3993.75
2018-06-01T10:19:56.048Z,4021.88
2018-06-01T10:20:56.098Z,4016.25
2018-06-01T10:21:56.137Z,4168.13
2018-06-01T10:22:56.175Z,4320.00
2018-06-01T10:23:56.227Z,4258.13
2018-06-01T10:24:56.266Z,4061.25
2018-06-01T10:25:56.303Z,4100.63
2018-06-01T10:26:56.355Z,4286.25
2018-06-01T10:27:56.393Z,4156.88
2018-06-01T10:28:56.443Z,4095.00
2018-06-01T10:30:56.532Z,4426.88
2018-06-01T10:31:56.571Z,4606.88
2018-06-01T10:32:56.639Z,4168.13
2018-06-01T10:34:56.724Z,4336.88
2018-06-01T10:35:56.751Z,4190.63
2018-06-01T10:36:56.801Z,4291.88
2018-06-01T10:37:57.140Z,4466.25
2018-06-01T10:38:56.889Z,4415.63
2018-06-01T10:39:56.938Z,4381.88
2018-06-01T10:40:56.979Z,4483.13
2018-06-01T10:41:57.018Z,4618.13
2018-06-01T10:42:57.068Z,4511.25
2018-06-01T10:43:57.119Z,4421.25
2018-06-01T10:44:57.158Z,4269.38
2018-06-01T10:45:57.209Z,4365.00
2018-06-01T10:46:57.247Z,4516.88
2018-06-01T10:47:57.298Z,4263.75
2018-06-01T10:48:57.340Z,3943.13
2018-06-01T10:49:57.388Z,3172.50
2018-06-01T10:50:57.439Z,3600.00
2018-06-01T10:51:57.476Z,2553.75
2018-06-01T10:52:57.527Z,1951.88
2018-06-01T10:53:57.567Z,1248.75
2018-06-01T10:54:57.617Z,1170.00
2018-06-01T10:55:57.656Z,1068.75
2018-06-01T10:56:57.706Z,978.75
2018-06-01T10:57:57.748Z,933.75
2018-06-01T10:58:57.797Z,922.50
2018-06-01T10:59:57.834Z,939.38
2018-06-01T11:00:57.874Z,973.13
2018-06-01T11:01:57.924Z,1040.63
2018-06-01T11:02:57.961Z,1085.63
2018-06-01T11:03:58.001Z,1102.50
2018-06-01T11:04:58.051Z,1153.13
2018-06-01T11:05:58.090Z,1203.75
2018-06-01T11:06:58.134Z,1299.38
2018-06-01T11:07:58.166Z,1687.50
2018-06-01T11:08:58.205Z,2649.38
2018-06-01T11:09:58.243Z,1906.88
2018-06-01T11:10:58.293Z,1867.50
2018-06-01T11:11:58.332Z,2345.63
2018-06-01T11:12:58.370Z,1845.00
2018-06-01T11:13:58.410Z,1811.25
2018-06-01T11:14:58.447Z,1805.63
2018-06-01T11:15:58.487Z,1991.25
2018-06-01T11:16:58.525Z,2278.13
2018-06-01T11:17:58.563Z,2486.25
2018-06-01T11:18:58.606Z,3009.38
2018-06-01T11:19:58.640Z,3015.00
2018-06-01T11:20:58.718Z,3313.13
2018-06-01T11:21:58.720Z,3240.00
2018-06-01T11:22:58.760Z,3155.63
2018-06-01T11:23:58.807Z,3600.00
2018-06-01T11:24:58.845Z,2520.00
2018-06-01T11:25:58.882Z,3532.50
2018-06-01T11:26:58.931Z,3690.00
2018-06-01T11:27:58.959Z,3161.25
2018-06-01T11:28:58.999Z,3453.75
2018-06-01T11:29:59.036Z,3161.25
2018-06-01T11:30:59.076Z,3211.88
2018-06-01T11:31:59.127Z,3161.25
2018-06-01T11:32:59.177Z,3003.75
2018-06-01T11:33:59.206Z,2981.25
2018-06-01T11:34:59.241Z,2992.50
2018-06-01T11:35:59.292Z,2851.88
2018-06-01T11:36:59.330Z,2790.00
2018-06-01T11:37:59.370Z,2621.25
2018-06-01T11:38:59.420Z,2553.75
2018-06-01T11:39:59.462Z,2536.88
2018-06-01T11:40:59.509Z,2486.25
2018-06-01T11:41:59.548Z,2390.63
2018-06-01T11:42:59.586Z,2328.75
2018-06-01T11:43:59.629Z,2328.75
2018-06-01T11:44:59.674Z,2328.75
2018-06-01T11:45:59.713Z,2250.00
2018-06-01T11:46:59.765Z,2210.63
2018-06-01T11:47:59.804Z,2216.25
2018-06-01T11:48:59.841Z,2182.50
2018-06-01T11:49:59.892Z,2148.75
2018-06-01T11:50:59.930Z,2210.63
2018-06-01T11:51:59.981Z,2233.13
2018-06-01T11:53:00.020Z,2317.50
2018-06-01T11:54:00.071Z,2576.25
2018-06-01T11:55:00.109Z,3133.13
2018-06-01T11:57:00.199Z,4246.88
2018-06-01T11:58:00.250Z,4466.25
2018-06-01T11:59:00.287Z,4398.75
2018-06-01T12:00:00.340Z,4201.88
2018-06-01T12:01:00.379Z,4083.75
2018-06-01T12:02:00.430Z,3898.13
2018-06-01T12:03:00.466Z,3746.25
2018-06-01T12:04:00.517Z,3600.00
2018-06-01T12:05:00.556Z,3453.75
2018-06-01T12:06:00.608Z,3346.88
2018-06-01T12:07:00.658Z,3352.50
2018-06-01T12:08:00.695Z,3476.25
2018-06-01T12:09:00.746Z,3577.50
2018-06-01T12:10:00.786Z,3397.50
2018-06-01T12:11:00.886Z,3133.13
2018-06-01T12:12:00.879Z,3166.88
2018-06-01T12:13:00.925Z,3757.50
2018-06-01T12:14:00.977Z,5169.38
2018-06-01T12:15:01.016Z,6367.50
2018-06-01T12:16:01.066Z,6721.88
2018-06-01T12:17:01.115Z,6322.50
2018-06-01T12:18:01.155Z,5281.88
2018-06-01T12:19:01.206Z,4837.50
2018-06-01T12:20:01.245Z,4415.63
2018-06-01T12:21:01.296Z,3943.13
2018-06-01T12:22:01.347Z,3735.00
2018-06-01T12:24:01.437Z,3723.75
2018-06-01T12:25:01.475Z,3532.50
2018-06-01T12:26:01.525Z,3521.25
2018-06-01T12:27:01.581Z,3740.63
2018-06-01T12:28:01.614Z,3847.50
2018-06-01T12:29:01.666Z,4055.63
2018-06-01T12:30:01.705Z,4348.13
2018-06-01T12:31:01.759Z,4156.88
2018-06-01T12:32:01.807Z,4044.38
2018-06-01T12:33:01.844Z,3988.13
2018-06-01T12:34:02.245Z,4021.88
2018-06-01T12:35:01.936Z,4320.00
2018-06-01T12:36:01.984Z,4314.38
2018-06-01T12:37:02.023Z,4123.13